Aviation Digital Data Service (ADDS)

Output produced by METARs form (0557 UTC 18 January 2018)
found at http://www.aviationweather.gov/adds/metars/
 
KMSP 180553Z 23008KT 10SM CLR M04/M09 A3003 RMK AO2 SLP184 4/004 T10441089 11028 21044 410281183 56009
KRNH 180535Z AUTO 21003KT 10SM CLR M07/M11 A3001 RMK AO2 T10731106